createdAt,value
2018-07-13T00:00:41.026Z,16.10
2018-07-13T00:03:10.293Z,16.00
2018-07-13T00:05:39.546Z,16.00
2018-07-13T00:08:08.707Z,16.00
2018-07-13T00:10:37.810Z,16.00
2018-07-13T00:13:07.013Z,15.90
2018-07-13T00:15:38.447Z,15.90
2018-07-13T00:18:07.663Z,15.80
2018-07-13T00:20:36.759Z,15.80
2018-07-13T00:23:06.026Z,15.80
2018-07-13T00:25:35.176Z,15.80
2018-07-13T00:28:04.479Z,15.80
2018-07-13T00:30:33.650Z,15.80
2018-07-13T00:33:02.746Z,15.70
2018-07-13T00:35:32.168Z,15.70
2018-07-13T00:38:01.263Z,15.60
2018-07-13T00:40:30.560Z,15.60
2018-07-13T00:42:59.785Z,15.50
2018-07-13T00:45:29.158Z,15.50
2018-07-13T00:47:58.224Z,15.50
2018-07-13T00:50:27.431Z,15.40
2018-07-13T00:52:56.729Z,15.40
2018-07-13T00:55:26.267Z,15.50
2018-07-13T00:57:55.355Z,15.50
2018-07-13T01:00:33.285Z,15.50
2018-07-13T01:03:03.824Z,15.40
2018-07-13T01:05:33.388Z,15.40
2018-07-13T01:08:02.491Z,15.30
2018-07-13T01:10:31.787Z,15.30
2018-07-13T01:13:00.859Z,15.30
2018-07-13T01:15:29.974Z,15.30
2018-07-13T01:17:59.270Z,15.20
2018-07-13T01:20:28.443Z,15.20
2018-07-13T01:22:58.506Z,15.20
2018-07-13T01:25:27.586Z,15.20
2018-07-13T01:27:57.600Z,15.10
2018-07-13T01:30:26.760Z,15.10
2018-07-13T01:32:55.959Z,15.20
2018-07-13T01:35:25.515Z,15.10
2018-07-13T01:37:54.731Z,15.10
2018-07-13T01:40:24.629Z,14.90
2018-07-13T01:42:53.809Z,14.90
2018-07-13T01:45:23.016Z,14.80
2018-07-13T01:47:52.341Z,14.80
2018-07-13T01:50:21.426Z,14.80
2018-07-13T01:52:50.739Z,14.70
2018-07-13T01:55:19.978Z,14.70
2018-07-13T01:57:49.207Z,14.70
2018-07-13T02:00:18.397Z,14.70
2018-07-13T02:02:47.599Z,14.70
2018-07-13T02:05:16.852Z,14.70
2018-07-13T02:07:46.062Z,14.60
2018-07-13T02:10:15.259Z,14.60
2018-07-13T02:12:44.494Z,14.60
2018-07-13T02:15:13.573Z,14.60
2018-07-13T02:17:43.484Z,14.50
2018-07-13T02:20:13.137Z,14.50
2018-07-13T02:22:42.260Z,14.50
2018-07-13T02:25:12.112Z,14.40
2018-07-13T02:27:41.907Z,14.30
2018-07-13T02:30:11.115Z,14.30
2018-07-13T02:32:40.318Z,14.30
2018-07-13T02:35:09.532Z,14.30
2018-07-13T02:37:38.844Z,14.20
2018-07-13T02:40:07.976Z,14.20
2018-07-13T02:42:37.989Z,14.20
2018-07-13T02:45:07.678Z,14.10
2018-07-13T02:47:37.147Z,14.20
2018-07-13T02:50:06.446Z,14.20
2018-07-13T02:52:35.537Z,14.10
2018-07-13T02:55:04.776Z,14.10
2018-07-13T02:57:33.922Z,14.10
2018-07-13T03:00:03.259Z,14.10
2018-07-13T03:02:32.434Z,14.10
2018-07-13T03:05:01.623Z,14.10
2018-07-13T03:07:30.927Z,14.10
2018-07-13T03:09:59.998Z,14.10
2018-07-13T03:12:29.132Z,14.10
2018-07-13T03:14:58.291Z,14.10
2018-07-13T03:17:27.456Z,14.00
2018-07-13T03:19:56.858Z,14.00
2018-07-13T03:22:25.926Z,14.00
2018-07-13T03:24:55.309Z,13.90
2018-07-13T03:27:24.398Z,13.90
2018-07-13T03:29:53.624Z,13.90
2018-07-13T03:32:22.717Z,13.90
2018-07-13T03:34:51.791Z,13.90
2018-07-13T03:37:21.013Z,13.90
2018-07-13T03:39:53.075Z,13.90
2018-07-13T03:42:22.386Z,13.90
2018-07-13T03:44:51.570Z,13.90
2018-07-13T03:47:20.767Z,14.00
2018-07-13T03:49:50.293Z,14.00
2018-07-13T03:52:19.634Z,14.10
2018-07-13T03:54:48.825Z,14.10
2018-07-13T03:57:17.901Z,14.10
2018-07-13T03:59:47.157Z,14.20
2018-07-13T04:02:16.464Z,14.30
2018-07-13T04:04:45.670Z,14.40
2018-07-13T04:07:14.833Z,14.40
2018-07-13T04:09:43.928Z,14.50
2018-07-13T04:12:13.176Z,14.50
2018-07-13T04:14:45.630Z,14.60
2018-07-13T04:17:15.046Z,14.70
2018-07-13T04:19:44.522Z,14.70
2018-07-13T04:22:13.877Z,14.70
2018-07-13T04:24:43.301Z,14.70
2018-07-13T04:27:13.038Z,14.80
2018-07-13T04:29:42.502Z,14.90
2018-07-13T04:32:12.186Z,14.90
2018-07-13T04:34:41.595Z,15.00
2018-07-13T04:37:11.220Z,15.10
2018-07-13T04:39:40.317Z,15.10
2018-07-13T04:42:10.088Z,15.20
2018-07-13T04:44:39.632Z,15.30
2018-07-13T04:52:06.855Z,15.60
2018-07-13T04:54:36.017Z,15.60
2018-07-13T04:57:05.254Z,15.70
2018-07-13T04:59:34.577Z,15.80
2018-07-13T05:02:05.540Z,15.80
2018-07-13T05:04:34.910Z,15.80
2018-07-13T05:07:04.764Z,15.80
2018-07-13T05:09:33.927Z,15.80
2018-07-13T05:12:03.263Z,15.90
2018-07-13T05:14:32.494Z,16.00
2018-07-13T05:17:01.866Z,16.10
2018-07-13T05:19:31.854Z,16.30
2018-07-13T05:22:01.097Z,16.60
2018-07-13T05:24:31.183Z,16.80
2018-07-13T05:27:00.537Z,16.90
2018-07-13T05:29:30.051Z,17.00
2018-07-13T05:31:59.187Z,17.10
2018-07-13T05:34:28.534Z,17.10
2018-07-13T05:36:57.980Z,17.20
2018-07-13T05:39:27.173Z,17.30
2018-07-13T05:41:56.783Z,17.20
2018-07-13T05:44:26.220Z,17.20
2018-07-13T05:46:55.955Z,17.20
2018-07-13T05:49:25.298Z,17.30
2018-07-13T05:51:55.044Z,17.40
2018-07-13T05:54:24.202Z,17.50
2018-07-13T05:56:54.074Z,17.70
2018-07-13T05:59:23.347Z,17.90
2018-07-13T06:01:52.557Z,18.00
2018-07-13T06:04:21.698Z,18.00
2018-07-13T06:06:50.871Z,18.10
2018-07-13T06:09:20.760Z,18.20
2018-07-13T06:11:50.220Z,18.30
2018-07-13T06:14:19.765Z,18.60
2018-07-13T06:16:48.838Z,18.70
2018-07-13T06:19:18.098Z,18.70
2018-07-13T06:21:47.826Z,18.70
2018-07-13T06:24:17.726Z,18.70
2018-07-13T06:26:46.822Z,18.80
2018-07-13T06:29:16.080Z,18.90
2018-07-13T06:31:45.380Z,18.90
2018-07-13T06:34:15.155Z,18.90
2018-07-13T06:36:44.289Z,18.90
2018-07-13T06:39:13.898Z,19.10
2018-07-13T06:41:43.731Z,19.20
2018-07-13T06:44:12.902Z,19.40
2018-07-13T06:46:45.714Z,19.50
2018-07-13T06:49:15.582Z,19.60
2018-07-13T06:51:45.857Z,19.80
2018-07-13T06:54:14.994Z,19.80
2018-07-13T06:56:44.323Z,19.80
2018-07-13T06:59:15.235Z,19.80
2018-07-13T07:01:45.050Z,19.80
2018-07-13T07:04:37.628Z,19.80
2018-07-13T07:07:15.233Z,20.10
2018-07-13T07:09:48.862Z,20.30
2018-07-13T07:12:40.340Z,20.40
2018-07-13T07:15:09.533Z,20.50
2018-07-13T07:17:38.756Z,20.90
2018-07-13T07:20:08.129Z,21.00
2018-07-13T07:22:37.488Z,21.10
2018-07-13T07:25:06.943Z,21.20
2018-07-13T07:27:36.820Z,21.30
2018-07-13T07:30:05.914Z,21.40
2018-07-13T07:32:35.135Z,21.30
2018-07-13T07:35:04.342Z,21.30
2018-07-13T07:40:02.308Z,21.40
2018-07-13T07:42:31.713Z,21.40
2018-07-13T07:45:01.109Z,21.60
2018-07-13T07:47:30.307Z,21.70
2018-07-13T07:49:59.893Z,21.90
2018-07-13T07:52:29.226Z,21.90
2018-07-13T07:54:58.424Z,22.00
2018-07-13T07:57:28.202Z,22.00
2018-07-13T07:59:57.253Z,22.20
2018-07-13T08:02:26.536Z,22.40
2018-07-13T08:04:55.764Z,22.60
2018-07-13T08:07:25.032Z,22.80
2018-07-13T08:09:54.364Z,23.00
2018-07-13T08:12:23.458Z,23.20
2018-07-13T08:14:52.712Z,23.20
2018-07-13T08:17:21.940Z,23.30
2018-07-13T08:19:51.279Z,23.40
2018-07-13T08:22:56.351Z,23.60
2018-07-13T08:25:27.235Z,24.00
2018-07-13T08:28:00.353Z,24.20
2018-07-13T08:30:32.989Z,24.50
2018-07-13T08:33:02.381Z,24.50
2018-07-13T08:35:32.478Z,24.40
2018-07-13T08:38:02.102Z,24.50
2018-07-13T08:40:31.305Z,24.50
2018-07-13T08:43:00.562Z,24.70
2018-07-13T08:45:29.651Z,25.00
2018-07-13T08:47:58.883Z,24.80
2018-07-13T08:50:28.596Z,24.90
2018-07-13T08:52:58.729Z,24.90
2018-07-13T08:55:27.960Z,24.70
2018-07-13T08:57:57.177Z,24.70
2018-07-13T09:00:26.310Z,24.70
2018-07-13T09:02:56.658Z,24.70
2018-07-13T09:05:25.860Z,24.90
2018-07-13T09:07:54.944Z,25.20
2018-07-13T09:10:24.831Z,25.50
2018-07-13T09:12:54.742Z,25.60
2018-07-13T09:15:24.076Z,25.50
2018-07-13T09:17:53.298Z,25.40
2018-07-13T09:20:22.588Z,25.30
2018-07-13T09:22:51.751Z,25.40
2018-07-13T09:25:20.844Z,25.60
2018-07-13T09:27:50.029Z,25.60
2018-07-13T09:30:19.271Z,25.60
2018-07-13T09:32:48.538Z,25.80
2018-07-13T09:35:17.753Z,25.90
2018-07-13T09:37:46.932Z,25.60
2018-07-13T09:40:16.120Z,25.60
2018-07-13T09:42:45.291Z,25.70
2018-07-13T09:45:14.429Z,25.80
2018-07-13T09:47:43.639Z,25.80
2018-07-13T09:50:12.723Z,25.70
2018-07-13T09:52:41.854Z,25.50
2018-07-13T09:55:11.095Z,25.60
2018-07-13T09:57:40.529Z,25.80
2018-07-13T10:00:11.773Z,26.00
2018-07-13T10:02:41.018Z,26.10
2018-07-13T10:05:10.509Z,26.00
2018-07-13T10:07:39.860Z,26.00
2018-07-13T10:10:09.189Z,26.20
2018-07-13T10:12:38.691Z,26.50
2018-07-13T10:15:08.985Z,26.40
2018-07-13T10:17:38.148Z,26.50
2018-07-13T10:20:07.426Z,26.50
2018-07-13T10:22:37.504Z,26.70
2018-07-13T10:25:06.632Z,26.70
2018-07-13T10:27:37.571Z,26.60
2018-07-13T10:30:09.837Z,26.80
2018-07-13T10:32:38.969Z,27.20
2018-07-13T10:35:08.597Z,27.30
2018-07-13T10:37:38.078Z,27.20
2018-07-13T10:40:07.242Z,27.20
2018-07-13T10:42:36.312Z,27.10
2018-07-13T10:45:05.743Z,27.10
2018-07-13T10:47:34.989Z,27.00
2018-07-13T10:50:04.167Z,27.20
2018-07-13T10:55:02.318Z,27.50
2018-07-13T10:57:32.096Z,27.60
2018-07-13T11:00:01.472Z,27.60
2018-07-13T11:02:30.624Z,27.60
2018-07-13T11:04:59.974Z,27.80
2018-07-13T11:07:29.188Z,28.00
2018-07-13T11:09:58.421Z,28.00
2018-07-13T11:12:27.795Z,28.00
2018-07-13T11:14:57.427Z,28.20
2018-07-13T11:17:26.754Z,28.30
2018-07-13T11:19:55.817Z,28.00
2018-07-13T11:22:25.052Z,28.00
2018-07-13T11:24:54.388Z,28.00
2018-07-13T11:27:23.634Z,28.00
2018-07-13T11:29:53.340Z,28.00
2018-07-13T11:32:22.456Z,28.10
2018-07-13T11:34:51.505Z,28.10
2018-07-13T11:37:20.894Z,28.30
2018-07-13T11:39:49.887Z,28.60
2018-07-13T11:42:19.151Z,28.60
2018-07-13T11:44:48.439Z,28.30
2018-07-13T11:47:17.504Z,28.10
2018-07-13T11:49:47.122Z,28.10
2018-07-13T11:52:16.542Z,28.20
2018-07-13T11:54:46.059Z,27.90
2018-07-13T11:57:15.468Z,27.90
2018-07-13T11:59:44.798Z,28.00
2018-07-13T12:02:14.102Z,28.10
2018-07-13T12:04:43.266Z,28.20
2018-07-13T12:07:12.324Z,28.40
2018-07-13T12:09:41.660Z,28.80
2018-07-13T12:12:11.273Z,28.90
2018-07-13T12:14:43.347Z,28.80
2018-07-13T12:17:12.709Z,28.80
2018-07-13T12:19:41.882Z,28.90
2018-07-13T12:22:11.105Z,28.90
2018-07-13T12:24:40.551Z,29.10
2018-07-13T12:27:10.587Z,29.10
2018-07-13T12:29:39.644Z,28.80
2018-07-13T12:32:08.947Z,28.30
2018-07-13T12:34:38.136Z,28.10
2018-07-13T12:37:07.415Z,27.70
2018-07-13T12:39:36.512Z,27.40
2018-07-13T12:42:05.760Z,27.00
2018-07-13T12:44:35.164Z,26.70
2018-07-13T12:47:04.226Z,26.80
2018-07-13T12:49:33.442Z,26.90
2018-07-13T12:52:02.657Z,27.10
2018-07-13T12:54:31.981Z,27.30
2018-07-13T12:57:01.052Z,27.30
2018-07-13T12:59:31.014Z,27.10
2018-07-13T13:02:00.140Z,27.00
2018-07-13T13:04:29.346Z,26.90
2018-07-13T13:06:58.535Z,27.00
2018-07-13T13:09:27.609Z,27.00
2018-07-13T13:11:56.855Z,27.00
2018-07-13T13:14:25.916Z,27.10
2018-07-13T13:16:55.066Z,27.20
2018-07-13T13:19:24.221Z,27.30
2018-07-13T13:21:53.494Z,27.30
2018-07-13T13:24:22.601Z,27.30
2018-07-13T13:26:51.770Z,27.50
2018-07-13T13:29:21.808Z,27.50
2018-07-13T13:31:50.985Z,27.50
2018-07-13T13:34:20.302Z,27.60
2018-07-13T13:36:49.530Z,27.60
2018-07-13T13:39:18.717Z,27.80
2018-07-13T13:41:47.961Z,27.80
2018-07-13T13:44:17.100Z,27.80
2018-07-13T13:46:46.205Z,27.80
2018-07-13T13:49:15.934Z,27.80
2018-07-13T13:51:45.164Z,27.90
2018-07-13T13:54:14.615Z,27.70
2018-07-13T13:56:43.829Z,27.70
2018-07-13T13:59:13.407Z,27.80
2018-07-13T14:01:42.468Z,28.00
2018-07-13T14:04:12.590Z,28.30
2018-07-13T14:06:41.711Z,28.60
2018-07-13T14:09:10.884Z,29.10
2018-07-13T14:11:40.016Z,29.20
2018-07-13T14:14:09.539Z,29.30
2018-07-13T14:16:39.186Z,29.40
2018-07-13T14:19:08.455Z,29.70
2018-07-13T14:21:37.625Z,29.90
2018-07-13T14:24:06.951Z,30.10
2018-07-13T14:26:36.119Z,30.20
2018-07-13T14:29:05.712Z,29.90
2018-07-13T14:31:35.834Z,29.60
2018-07-13T14:34:05.132Z,29.30
2018-07-13T14:36:34.339Z,29.40
2018-07-13T14:39:03.878Z,29.40
2018-07-13T14:41:32.948Z,29.40
2018-07-13T14:44:02.202Z,29.30
2018-07-13T14:46:31.243Z,29.50
2018-07-13T14:49:00.569Z,29.90
2018-07-13T14:51:29.875Z,30.20
2018-07-13T14:53:59.626Z,30.10
2018-07-13T14:56:29.273Z,30.30
2018-07-13T14:58:58.632Z,30.80
2018-07-13T15:01:28.208Z,31.20
2018-07-13T15:03:57.366Z,31.60
2018-07-13T15:06:27.002Z,32.50
2018-07-13T15:08:56.188Z,33.10
2018-07-13T15:11:25.718Z,33.50
2018-07-13T15:13:54.906Z,33.30
2018-07-13T15:16:24.237Z,32.70
2018-07-13T15:18:53.317Z,32.20
2018-07-13T15:23:51.204Z,32.50
2018-07-13T15:26:20.462Z,32.70
2018-07-13T15:28:49.701Z,32.80
2018-07-13T15:31:19.494Z,33.10
2018-07-13T15:33:48.683Z,33.20
2018-07-13T15:36:17.895Z,33.50
2018-07-13T15:38:47.192Z,33.60
2018-07-13T15:41:16.436Z,34.20
2018-07-13T15:43:45.761Z,34.70
2018-07-13T15:46:15.132Z,35.10
2018-07-13T15:48:45.049Z,34.60
2018-07-13T15:51:14.225Z,34.60
2018-07-13T15:53:43.403Z,34.70
2018-07-13T15:56:12.727Z,34.80
2018-07-13T16:01:10.997Z,35.80
2018-07-13T16:03:40.322Z,36.50
2018-07-13T16:06:12.570Z,36.50
2018-07-13T16:08:41.625Z,36.10
2018-07-13T16:11:10.988Z,35.80
2018-07-13T16:13:40.164Z,35.80
2018-07-13T16:16:09.545Z,35.80
2018-07-13T16:18:38.614Z,36.30
2018-07-13T16:21:07.771Z,36.70
2018-07-13T16:23:36.911Z,36.70
2018-07-13T16:26:06.319Z,36.40
2018-07-13T16:28:35.665Z,36.00
2018-07-13T16:31:04.836Z,35.70
2018-07-13T16:33:34.710Z,35.20
2018-07-13T16:36:03.871Z,34.50
2018-07-13T16:38:33.968Z,33.80
2018-07-13T16:41:03.169Z,33.80
2018-07-13T16:43:32.277Z,33.60
2018-07-13T16:46:01.414Z,32.90
2018-07-13T16:48:30.731Z,32.50
2018-07-13T16:50:59.853Z,32.00
2018-07-13T16:53:29.078Z,31.40
2018-07-13T16:55:58.529Z,30.90
2018-07-13T16:58:27.815Z,30.60
2018-07-13T17:00:57.500Z,30.20
2018-07-13T17:03:26.645Z,30.40
2018-07-13T17:05:55.872Z,31.20
2018-07-13T17:08:25.212Z,32.20
2018-07-13T17:10:54.600Z,33.10
2018-07-13T17:13:23.717Z,33.60
2018-07-13T17:15:53.090Z,34.40
2018-07-13T17:18:22.925Z,34.40
2018-07-13T17:20:52.001Z,34.60
2018-07-13T17:23:21.328Z,34.80
2018-07-13T17:25:51.067Z,34.80
2018-07-13T17:28:20.162Z,34.40
2018-07-13T17:30:49.370Z,34.00
2018-07-13T17:33:18.555Z,33.70
2018-07-13T17:35:48.515Z,33.60
2018-07-13T17:38:17.729Z,33.20
2018-07-13T17:40:47.315Z,32.70
2018-07-13T17:43:16.483Z,32.70
2018-07-13T17:45:45.592Z,32.70
2018-07-13T17:48:14.809Z,32.70
2018-07-13T17:50:43.935Z,32.90
2018-07-13T17:53:13.037Z,32.80
2018-07-13T17:55:42.222Z,32.60
2018-07-13T17:58:11.539Z,32.70
2018-07-13T18:00:40.969Z,32.40
2018-07-13T18:03:10.270Z,32.40
2018-07-13T18:05:39.473Z,32.40
2018-07-13T18:08:08.588Z,32.10
2018-07-13T18:15:35.405Z,30.00
2018-07-13T18:20:33.248Z,29.00
2018-07-13T18:23:02.419Z,28.50
2018-07-13T18:25:31.627Z,28.10
2018-07-13T18:28:00.739Z,27.70
2018-07-13T18:30:30.122Z,27.40
2018-07-13T18:33:00.053Z,27.20
2018-07-13T18:35:29.160Z,26.90
2018-07-13T18:37:58.358Z,26.60
2018-07-13T18:40:27.769Z,26.50
2018-07-13T18:42:56.975Z,26.30
2018-07-13T18:45:26.128Z,26.10
2018-07-13T18:47:55.934Z,25.90
2018-07-13T18:50:25.161Z,25.70
2018-07-13T18:52:54.862Z,25.60
2018-07-13T18:55:24.083Z,25.40
2018-07-13T18:57:53.233Z,25.20
2018-07-13T19:00:22.368Z,25.10
2018-07-13T19:02:51.600Z,25.00
2018-07-13T19:05:20.974Z,24.90
2018-07-13T19:07:50.325Z,24.70
2018-07-13T19:10:19.742Z,24.60
2018-07-13T19:12:48.867Z,24.50
2018-07-13T19:15:18.123Z,24.40
2018-07-13T19:17:47.214Z,24.30
2018-07-13T19:20:16.585Z,24.20
2018-07-13T19:22:45.822Z,24.00
2018-07-13T19:25:15.118Z,24.00
2018-07-13T19:27:44.522Z,23.90
2018-07-13T19:30:13.667Z,23.80
2018-07-13T19:32:43.345Z,23.70
2018-07-13T19:35:12.704Z,23.70
2018-07-13T19:37:42.046Z,23.50
2018-07-13T19:40:11.241Z,23.50
2018-07-13T19:42:40.678Z,23.40
2018-07-13T19:45:09.866Z,23.30
2018-07-13T19:47:39.141Z,23.20
2018-07-13T19:50:08.289Z,23.20
2018-07-13T19:52:37.476Z,23.10
2018-07-13T19:55:07.394Z,23.10
2018-07-13T19:57:36.508Z,22.90
2018-07-13T20:00:06.135Z,22.90
2018-07-13T20:02:35.363Z,22.80
2018-07-13T20:05:05.756Z,22.70
2018-07-13T20:07:34.988Z,22.70
2018-07-13T20:10:04.289Z,22.60
2018-07-13T20:12:33.669Z,22.60
2018-07-13T20:15:03.032Z,22.50
2018-07-13T20:17:32.155Z,22.40
2018-07-13T20:22:30.307Z,22.30
2018-07-13T20:24:59.438Z,22.20
2018-07-13T20:27:28.618Z,22.20
2018-07-13T20:29:57.808Z,22.10
2018-07-13T20:32:27.638Z,22.00
2018-07-13T20:34:56.777Z,21.90
2018-07-13T20:37:25.913Z,21.90
2018-07-13T20:42:24.120Z,21.70
2018-07-13T20:44:53.312Z,21.60
2018-07-13T20:47:22.616Z,21.60
2018-07-13T20:49:51.733Z,21.60
2018-07-13T20:52:20.964Z,21.60
2018-07-13T20:54:50.074Z,21.50
2018-07-13T20:57:19.522Z,21.40
2018-07-13T20:59:49.574Z,21.30
2018-07-13T21:02:18.947Z,21.20
2018-07-13T21:04:48.216Z,21.20
2018-07-13T21:07:17.359Z,21.20
2018-07-13T21:09:46.654Z,21.10
2018-07-13T21:12:15.762Z,21.10
2018-07-13T21:14:45.422Z,21.10
2018-07-13T21:17:14.662Z,21.00
2018-07-13T21:19:43.746Z,20.90
2018-07-13T21:22:12.915Z,20.90
2018-07-13T21:24:42.198Z,20.80
2018-07-13T21:27:11.935Z,20.70
2018-07-13T21:29:41.570Z,20.60
2018-07-13T21:32:10.777Z,20.50
2018-07-13T21:34:40.765Z,20.50
2018-07-13T21:37:10.199Z,20.40
2018-07-13T21:39:39.366Z,20.40
2018-07-13T21:42:08.854Z,20.30
2018-07-13T21:44:37.970Z,20.30
2018-07-13T21:49:36.132Z,20.30
2018-07-13T21:52:05.335Z,20.20
2018-07-13T21:54:34.445Z,20.20
2018-07-13T21:57:03.723Z,20.20
2018-07-13T21:59:32.930Z,20.20
2018-07-13T22:02:02.436Z,20.10
2018-07-13T22:04:31.504Z,20.10
2018-07-13T22:07:00.713Z,20.00
2018-07-13T22:09:30.133Z,19.90
2018-07-13T22:11:59.374Z,19.90
2018-07-13T22:14:28.687Z,19.80
2018-07-13T22:16:58.026Z,19.70
2018-07-13T22:19:27.331Z,19.60
2018-07-13T22:21:56.527Z,19.60
2018-07-13T22:24:25.659Z,19.50
2018-07-13T22:26:54.899Z,19.40
2018-07-13T22:29:25.270Z,19.40
2018-07-13T22:31:54.664Z,19.40
2018-07-13T22:34:23.779Z,19.30
2018-07-13T22:36:53.591Z,19.30
2018-07-13T22:39:22.806Z,19.20
2018-07-13T22:41:52.063Z,19.10
2018-07-13T22:44:21.197Z,19.10
2018-07-13T22:46:50.584Z,19.10
2018-07-13T22:49:19.717Z,19.10
2018-07-13T22:51:48.924Z,19.00
2018-07-13T22:54:18.165Z,19.00
2018-07-13T22:56:47.297Z,18.90
2018-07-13T22:59:17.218Z,18.90
2018-07-13T23:01:46.744Z,18.90
2018-07-13T23:04:15.970Z,18.80
2018-07-13T23:06:45.304Z,18.80
2018-07-13T23:09:14.420Z,18.70
2018-07-13T23:11:43.864Z,18.70
2018-07-13T23:14:13.302Z,18.60
2018-07-13T23:16:42.391Z,18.60
2018-07-13T23:19:11.671Z,18.50
2018-07-13T23:21:40.857Z,18.50
2018-07-13T23:24:10.393Z,18.40
2018-07-13T23:26:40.054Z,18.30
2018-07-13T23:29:09.266Z,18.30
2018-07-13T23:31:39.618Z,18.30
2018-07-13T23:34:08.816Z,18.20
2018-07-13T23:36:37.951Z,18.20
2018-07-13T23:39:07.126Z,18.20
2018-07-13T23:41:36.266Z,18.10
2018-07-13T23:44:06.131Z,18.10
2018-07-13T23:46:35.453Z,18.10
2018-07-13T23:49:04.959Z,18.00
2018-07-13T23:51:34.233Z,18.00
2018-07-13T23:54:03.328Z,18.00
2018-07-13T23:56:32.554Z,17.90
2018-07-13T23:59:01.901Z,17.90
